createdAt,value
2023-04-10T00:00:17.839Z,24
2023-04-10T00:05:17.652Z,24
2023-04-10T00:10:17.666Z,23
2023-04-10T00:15:17.693Z,22
2023-04-10T00:20:17.562Z,23
2023-04-10T00:25:18.094Z,20
2023-04-10T00:30:17.718Z,18
2023-04-10T00:35:17.829Z,17
2023-04-10T00:40:17.681Z,19
2023-04-10T00:45:17.960Z,21
2023-04-10T00:50:17.601Z,21
2023-04-10T00:55:17.657Z,22
2023-04-10T01:00:17.782Z,20
2023-04-10T01:05:17.769Z,21
2023-04-10T01:10:17.626Z,22
2023-04-10T01:15:18.053Z,21
2023-04-10T01:20:17.842Z,19
2023-04-10T01:25:17.756Z,20
2023-04-10T01:30:18.093Z,19
2023-04-10T01:35:18.149Z,22
2023-04-10T01:40:17.736Z,22
2023-04-10T01:45:18.101Z,22
2023-04-10T01:50:18.090Z,22
2023-04-10T01:55:18.053Z,22
2023-04-10T02:00:17.963Z,22
2023-04-10T02:05:18.028Z,23
2023-04-10T02:10:17.910Z,27
2023-04-10T02:15:18.084Z,24
2023-04-10T02:20:17.837Z,24
2023-04-10T02:25:18.067Z,26
2023-04-10T02:30:18.362Z,23
2023-04-10T02:35:18.169Z,23
2023-04-10T02:40:17.875Z,24
2023-04-10T02:45:18.388Z,23
2023-04-10T02:50:17.972Z,21
2023-04-10T02:55:18.083Z,19
2023-04-10T03:00:18.096Z,21
2023-04-10T03:05:18.284Z,21
2023-04-10T03:10:18.020Z,20
2023-04-10T03:15:18.151Z,21
2023-04-10T03:20:18.073Z,22
2023-04-10T03:25:18.204Z,19
2023-04-10T03:30:18.132Z,19
2023-04-10T03:35:18.113Z,18
2023-04-10T03:40:18.285Z,18
2023-04-10T03:45:18.735Z,19
2023-04-10T03:50:18.103Z,17
2023-04-10T03:55:18.614Z,18
2023-04-10T04:00:17.212Z,16
2023-04-10T04:05:17.258Z,17
2023-04-10T04:10:17.164Z,16
2023-04-10T04:15:17.515Z,18
2023-04-10T04:20:17.200Z,19
2023-04-10T04:25:17.240Z,19
2023-04-10T04:30:17.236Z,16
2023-04-10T04:35:17.395Z,17
2023-04-10T04:40:17.293Z,18
2023-04-10T04:45:17.472Z,17
2023-04-10T04:50:17.431Z,18
2023-04-10T04:55:17.746Z,18
2023-04-10T05:00:17.526Z,17
2023-04-10T05:05:17.604Z,19
2023-04-10T05:10:17.339Z,18
2023-04-10T05:15:17.530Z,20
2023-04-10T05:20:17.339Z,18
2023-04-10T05:25:17.619Z,19
2023-04-10T05:30:17.543Z,16
2023-04-10T05:35:17.447Z,16
2023-04-10T05:40:17.345Z,15
2023-04-10T05:45:17.790Z,16
2023-04-10T05:50:17.399Z,15
2023-04-10T05:55:17.537Z,17
2023-04-10T06:00:17.679Z,16
2023-04-10T06:05:17.706Z,17
2023-04-10T06:10:17.458Z,16
2023-04-10T06:15:18.010Z,16
2023-04-10T06:20:17.436Z,18
2023-04-10T06:25:17.593Z,17
2023-04-10T06:30:17.578Z,16
2023-04-10T06:35:17.680Z,14
2023-04-10T06:40:17.504Z,15
2023-04-10T06:45:17.731Z,14
2023-04-10T06:50:17.551Z,14
2023-04-10T06:55:17.579Z,14
2023-04-10T07:00:17.656Z,16
2023-04-10T07:05:17.755Z,15
2023-04-10T07:10:17.876Z,16
2023-04-10T07:15:17.998Z,16
2023-04-10T07:20:17.689Z,16
2023-04-10T07:25:18.025Z,16
2023-04-10T07:30:17.873Z,15
2023-04-10T07:35:17.757Z,15
2023-04-10T07:40:19.256Z,16
2023-04-10T07:45:17.876Z,15
2023-04-10T07:50:17.705Z,15
2023-04-10T07:55:17.847Z,15
2023-04-10T08:00:18.016Z,15
2023-04-10T08:05:17.821Z,14
2023-04-10T08:10:17.809Z,15
2023-04-10T08:15:18.035Z,13
2023-04-10T08:20:17.890Z,14
2023-04-10T08:25:17.915Z,14
2023-04-10T08:30:17.844Z,14
2023-04-10T08:35:18.138Z,13
2023-04-10T08:40:17.800Z,12
2023-04-10T08:45:18.609Z,12
2023-04-10T08:50:17.843Z,12
2023-04-10T08:55:18.008Z,13
2023-04-10T09:00:23.389Z,13
2023-04-10T09:05:18.046Z,12
2023-04-10T09:10:18.001Z,12
2023-04-10T09:15:18.208Z,11
2023-04-10T09:20:18.078Z,11
2023-04-10T09:25:18.148Z,11
2023-04-10T09:30:18.269Z,12
2023-04-10T09:35:18.038Z,13
2023-04-10T09:40:18.054Z,13
2023-04-10T09:45:18.472Z,12
2023-04-10T09:50:18.018Z,10
2023-04-10T09:55:18.413Z,12
2023-04-10T10:00:18.400Z,12
2023-04-10T10:05:18.323Z,11
2023-04-10T10:10:18.080Z,11
2023-04-10T10:15:18.336Z,11
2023-04-10T10:20:18.183Z,12
2023-04-10T10:25:18.285Z,12
2023-04-10T10:30:29.564Z,12
2023-04-10T10:35:18.438Z,12
2023-04-10T10:40:18.197Z,11
2023-04-10T10:45:18.360Z,11
2023-04-10T10:50:18.586Z,12
2023-04-10T10:55:16.248Z,11
2023-04-10T11:00:16.336Z,12
2023-04-10T11:05:16.837Z,11
2023-04-10T11:10:16.222Z,12
2023-04-10T11:15:16.533Z,12
2023-04-10T11:20:16.240Z,10
2023-04-10T11:25:16.358Z,10
2023-04-10T11:30:16.396Z,9
2023-04-10T11:35:16.242Z,8
2023-04-10T11:40:16.662Z,9
2023-04-10T11:45:16.509Z,10
2023-04-10T11:50:16.311Z,11
2023-04-10T11:55:16.660Z,11
2023-04-10T12:00:16.509Z,11
2023-04-10T12:05:16.550Z,11
2023-04-10T12:10:16.395Z,14
2023-04-10T12:15:16.670Z,11
2023-04-10T12:20:16.596Z,11
2023-04-10T12:25:16.540Z,11
2023-04-10T12:30:16.715Z,9
2023-04-10T12:35:16.570Z,6
2023-04-10T12:40:16.429Z,8
2023-04-10T12:45:16.698Z,5
2023-04-10T12:50:16.749Z,4
2023-04-10T12:55:16.569Z,5
2023-04-10T13:00:16.670Z,6
2023-04-10T13:05:16.887Z,5
2023-04-10T13:10:16.516Z,5
2023-04-10T13:15:16.791Z,5
2023-04-10T13:20:16.548Z,6
2023-04-10T13:25:16.920Z,6
2023-04-10T13:30:16.618Z,9
2023-04-10T13:35:16.731Z,9
2023-04-10T13:40:16.702Z,10
2023-04-10T13:45:16.939Z,8
2023-04-10T13:50:16.880Z,8
2023-04-10T13:55:16.759Z,9
2023-04-10T14:00:16.882Z,8
2023-04-10T14:05:16.719Z,8
2023-04-10T14:10:16.870Z,8
2023-04-10T14:15:17.192Z,6
2023-04-10T14:20:16.795Z,8
2023-04-10T14:25:16.941Z,9
2023-04-10T14:30:16.812Z,9
2023-04-10T14:35:17.087Z,10
2023-04-10T14:40:16.813Z,11
2023-04-10T14:45:17.095Z,10
2023-04-10T14:50:16.737Z,9
2023-04-10T14:55:17.299Z,10
2023-04-10T15:00:17.123Z,11
2023-04-10T15:05:16.962Z,10
2023-04-10T15:10:16.995Z,10
2023-04-10T15:15:18.895Z,10
2023-04-10T15:20:16.828Z,9
2023-04-10T15:25:16.937Z,10
2023-04-10T15:30:17.011Z,11
2023-04-10T15:35:17.106Z,10
2023-04-10T15:40:17.233Z,11
2023-04-10T15:45:17.098Z,10
2023-04-10T15:50:16.988Z,10
2023-04-10T15:55:17.035Z,10
2023-04-10T16:00:17.203Z,9
2023-04-10T16:05:17.096Z,8
2023-04-10T16:10:16.940Z,10
2023-04-10T16:15:17.510Z,12
2023-04-10T16:20:17.050Z,11
2023-04-10T16:25:18.075Z,11
2023-04-10T16:30:17.209Z,11
2023-04-10T16:35:17.275Z,11
2023-04-10T16:40:17.258Z,12
2023-04-10T16:45:17.279Z,13
2023-04-10T16:50:17.199Z,12
2023-04-10T16:55:17.108Z,11
2023-04-10T17:00:17.221Z,10
2023-04-10T17:05:17.482Z,10
2023-04-10T17:10:17.172Z,11
2023-04-10T17:15:17.619Z,10
2023-04-10T17:20:17.215Z,11
2023-04-10T17:25:17.495Z,11
2023-04-10T17:30:17.430Z,10
2023-04-10T17:35:17.544Z,10
2023-04-10T17:40:17.221Z,12
2023-04-10T17:45:17.373Z,12
2023-04-10T17:50:17.829Z,9
2023-04-10T17:55:17.381Z,9
2023-04-10T18:00:18.681Z,9
2023-04-10T18:05:17.318Z,10
2023-04-10T18:10:17.476Z,13
2023-04-10T18:15:17.541Z,11
2023-04-10T18:20:17.417Z,11
2023-04-10T18:25:17.486Z,11
2023-04-10T18:30:17.462Z,11
2023-04-10T18:35:17.606Z,10
2023-04-10T18:40:17.475Z,12
2023-04-10T18:45:17.931Z,12
2023-04-10T18:50:17.433Z,13
2023-04-10T18:55:17.495Z,13
2023-04-10T19:00:17.448Z,13
2023-04-10T19:05:17.616Z,12
2023-04-10T19:10:17.603Z,12
2023-04-10T19:15:17.604Z,12
2023-04-10T19:20:17.685Z,13
2023-04-10T19:25:17.616Z,13
2023-04-10T19:30:17.606Z,15
2023-04-10T19:35:17.659Z,17
2023-04-10T19:40:17.546Z,17
2023-04-10T19:45:17.872Z,16
2023-04-10T19:50:17.573Z,14
2023-04-10T19:55:19.087Z,15
2023-04-10T20:00:17.774Z,16
2023-04-10T20:05:17.667Z,14
2023-04-10T20:10:17.614Z,15
2023-04-10T20:15:18.082Z,14
2023-04-10T20:20:18.305Z,14
2023-04-10T20:25:18.189Z,13
2023-04-10T20:30:17.661Z,13
2023-04-10T20:35:17.758Z,14
2023-04-10T20:40:17.802Z,13
2023-04-10T20:45:17.792Z,13
2023-04-10T20:50:17.818Z,12
2023-04-10T20:55:17.888Z,11
2023-04-10T21:00:17.736Z,11
2023-04-10T21:05:18.068Z,10
2023-04-10T21:10:17.766Z,10
2023-04-10T21:15:19.547Z,11
2023-04-10T21:20:17.774Z,12
2023-04-10T21:25:19.391Z,11
2023-04-10T21:30:18.060Z,13
2023-04-10T21:35:17.981Z,12
2023-04-10T21:40:17.855Z,11
2023-04-10T21:45:17.957Z,11
2023-04-10T21:50:17.896Z,11
2023-04-10T21:55:17.933Z,10
2023-04-10T22:00:19.025Z,11
2023-04-10T22:05:17.984Z,11
2023-04-10T22:10:17.947Z,10
2023-04-10T22:15:18.361Z,11
2023-04-10T22:20:17.900Z,11
2023-04-10T22:25:17.992Z,11
2023-04-10T22:30:18.307Z,12
2023-04-10T22:35:18.119Z,11
2023-04-10T22:40:18.257Z,11
2023-04-10T22:45:18.184Z,10
2023-04-10T22:50:17.984Z,11
2023-04-10T22:55:18.084Z,11
2023-04-10T23:00:18.164Z,11
2023-04-10T23:05:18.432Z,11
2023-04-10T23:10:18.049Z,12
2023-04-10T23:15:18.387Z,11
2023-04-10T23:20:18.128Z,10
2023-04-10T23:25:19.431Z,10
2023-04-10T23:30:18.212Z,10
2023-04-10T23:35:18.684Z,11
2023-04-10T23:40:18.198Z,10
2023-04-10T23:45:18.534Z,11
2023-04-10T23:50:18.509Z,10
2023-04-10T23:55:18.399Z,12
